sensor_id;sensor_type;location;lat;lon;timestamp;pressure;altitude;pressure_sealevel;temperature;humidity
62791;BME280;48830;53.426;10.300;2024-02-28T00:01:50;101868.94;;;22.75;67.95
62791;BME280;48830;53.426;10.300;2024-02-28T00:04:15;101866.31;;;22.75;68.42
62791;BME280;48830;53.426;10.300;2024-02-28T00:06:41;101869.81;;;22.74;68.43
62791;BME280;48830;53.426;10.300;2024-02-28T00:09:06;101871.59;;;22.74;68.09
62791;BME280;48830;53.426;10.300;2024-02-28T00:11:32;101868.06;;;22.75;68.19
62791;BME280;48830;53.426;10.300;2024-02-28T00:13:58;101875.03;;;22.76;67.90
62791;BME280;48830;53.426;10.300;2024-02-28T00:16:25;101879.50;;;22.72;68.25
62791;BME280;48830;53.426;10.300;2024-02-28T00:18:51;101873.38;;;22.72;68.30
62791;BME280;48830;53.426;10.300;2024-02-28T00:21:16;101876.00;;;22.70;68.09
62791;BME280;48830;53.426;10.300;2024-02-28T00:23:42;101883.81;;;22.73;68.21
62791;BME280;48830;53.426;10.300;2024-02-28T00:26:07;101878.63;;;22.72;68.43
62791;BME280;48830;53.426;10.300;2024-02-28T00:28:33;101881.22;;;22.73;68.13
62791;BME280;48830;53.426;10.300;2024-02-28T00:30:58;101879.53;;;22.69;68.41
62791;BME280;48830;53.426;10.300;2024-02-28T00:33:23;101871.66;;;22.69;67.13
62791;BME280;48830;53.426;10.300;2024-02-28T00:35:49;101880.38;;;22.71;67.76
62791;BME280;48830;53.426;10.300;2024-02-28T00:38:14;101876.91;;;22.71;67.56
62791;BME280;48830;53.426;10.300;2024-02-28T00:40:39;101873.38;;;22.70;68.10
62791;BME280;48830;53.426;10.300;2024-02-28T00:43:05;101881.22;;;22.73;67.69
62791;BME280;48830;53.426;10.300;2024-02-28T00:45:30;101874.28;;;22.69;67.41
62791;BME280;48830;53.426;10.300;2024-02-28T00:47:56;101872.56;;;22.68;67.93
62791;BME280;48830;53.426;10.300;2024-02-28T00:50:21;101877.81;;;22.68;67.36
62791;BME280;48830;53.426;10.300;2024-02-28T00:52:47;101876.00;;;22.70;67.13
62791;BME280;48830;53.426;10.300;2024-02-28T00:55:12;101870.84;;;22.67;67.04
62791;BME280;48830;53.426;10.300;2024-02-28T00:57:37;101872.59;;;22.65;67.34
62791;BME280;48830;53.426;10.300;2024-02-28T01:00:03;101868.25;;;22.64;67.05
62791;BME280;48830;53.426;10.300;2024-02-28T01:02:31;101865.66;;;22.63;67.40
62791;BME280;48830;53.426;10.300;2024-02-28T01:04:57;101854.28;;;22.64;67.46
62791;BME280;48830;53.426;10.300;2024-02-28T01:07:22;101851.63;;;22.65;67.54
62791;BME280;48830;53.426;10.300;2024-02-28T01:09:48;101855.13;;;22.67;67.11
62791;BME280;48830;53.426;10.300;2024-02-28T01:12:13;101860.41;;;22.64;67.21
62791;BME280;48830;53.426;10.300;2024-02-28T01:14:38;101861.25;;;22.66;67.17
62791;BME280;48830;53.426;10.300;2024-02-28T01:17:04;101863.00;;;22.64;67.03
62791;BME280;48830;53.426;10.300;2024-02-28T01:19:29;101859.56;;;22.62;67.49
62791;BME280;48830;53.426;10.300;2024-02-28T01:21:55;101856.06;;;22.63;67.41
62791;BME280;48830;53.426;10.300;2024-02-28T01:24:21;101865.63;;;22.64;67.20
62791;BME280;48830;53.426;10.300;2024-02-28T01:26:46;101859.56;;;22.62;67.56
62791;BME280;48830;53.426;10.300;2024-02-28T01:29:11;101866.59;;;22.60;67.30
62791;BME280;48830;53.426;10.300;2024-02-28T01:31:37;101862.22;;;22.59;67.08
62791;BME280;48830;53.426;10.300;2024-02-28T01:34:02;101851.75;;;22.61;67.39
62791;BME280;48830;53.426;10.300;2024-02-28T01:36:28;101857.03;;;22.58;68.01
62791;BME280;48830;53.426;10.300;2024-02-28T01:38:53;101848.31;;;22.57;67.56
62791;BME280;48830;53.426;10.300;2024-02-28T01:41:19;101845.69;;;22.57;67.57
62791;BME280;48830;53.426;10.300;2024-02-28T01:43:45;101855.31;;;22.57;67.23
62791;BME280;48830;53.426;10.300;2024-02-28T01:46:26;101857.06;;;22.54;67.46
62791;BME280;48830;53.426;10.300;2024-02-28T01:48:55;101855.25;;;22.58;67.51
62791;BME280;48830;53.426;10.300;2024-02-28T01:51:23;101850.09;;;22.55;67.44
62791;BME280;48830;53.426;10.300;2024-02-28T01:53:50;101846.50;;;22.59;67.69
62791;BME280;48830;53.426;10.300;2024-02-28T01:56:16;101847.47;;;22.55;67.79
62791;BME280;48830;53.426;10.300;2024-02-28T01:58:44;101841.34;;;22.56;67.63
62791;BME280;48830;53.426;10.300;2024-02-28T02:01:11;101848.34;;;22.54;67.70
62791;BME280;48830;53.426;10.300;2024-02-28T02:03:37;101848.38;;;22.52;67.63
62791;BME280;48830;53.426;10.300;2024-02-28T02:06:03;101843.16;;;22.51;67.46
62791;BME280;48830;53.426;10.300;2024-02-28T02:08:28;101851.84;;;22.53;67.52
62791;BME280;48830;53.426;10.300;2024-02-28T02:10:54;101845.72;;;22.54;67.47
62791;BME280;48830;53.426;10.300;2024-02-28T02:13:19;101839.63;;;22.53;67.60
62791;BME280;48830;53.426;10.300;2024-02-28T02:15:45;101841.44;;;22.50;67.37
62791;BME280;48830;53.426;10.300;2024-02-28T02:18:10;101844.03;;;22.51;67.59
62791;BME280;48830;53.426;10.300;2024-02-28T02:20:38;101837.09;;;22.47;67.58
62791;BME280;48830;53.426;10.300;2024-02-28T02:23:04;101837.97;;;22.49;68.02
62791;BME280;48830;53.426;10.300;2024-02-28T02:25:29;101838.81;;;22.50;67.60
62791;BME280;48830;53.426;10.300;2024-02-28T02:27:55;101842.34;;;22.47;67.83
62791;BME280;48830;53.426;10.300;2024-02-28T02:30:20;101850.19;;;22.49;68.31
62791;BME280;48830;53.426;10.300;2024-02-28T02:32:46;101839.69;;;22.49;68.30
62791;BME280;48830;53.426;10.300;2024-02-28T02:35:11;101838.91;;;22.45;67.97
62791;BME280;48830;53.426;10.300;2024-02-28T02:37:37;101844.94;;;22.49;68.04
62791;BME280;48830;53.426;10.300;2024-02-28T02:40:02;101841.50;;;22.47;68.09
62791;BME280;48830;53.426;10.300;2024-02-28T02:42:28;101845.91;;;22.43;68.14
62791;BME280;48830;53.426;10.300;2024-02-28T02:44:53;101849.38;;;22.44;68.13
62791;BME280;48830;53.426;10.300;2024-02-28T02:47:18;101863.38;;;22.43;68.16
62791;BME280;48830;53.426;10.300;2024-02-28T02:49:44;101879.09;;;22.43;68.31
62791;BME280;48830;53.426;10.300;2024-02-28T02:52:09;101883.47;;;22.42;68.56
62791;BME280;48830;53.426;10.300;2024-02-28T02:54:34;101876.53;;;22.41;68.30
62791;BME280;48830;53.426;10.300;2024-02-28T02:57:00;101873.00;;;22.42;67.83
62791;BME280;48830;53.426;10.300;2024-02-28T02:59:25;101866.97;;;22.39;68.15
62791;BME280;48830;53.426;10.300;2024-02-28T03:01:50;101859.13;;;22.39;68.18
62791;BME280;48830;53.426;10.300;2024-02-28T03:04:16;101865.16;;;22.42;67.96
62791;BME280;48830;53.426;10.300;2024-02-28T03:06:41;101866.97;;;22.39;68.19
62791;BME280;48830;53.426;10.300;2024-02-28T03:09:07;101880.94;;;22.39;67.82
62791;BME280;48830;53.426;10.300;2024-02-28T03:11:33;101875.72;;;22.36;68.10
62791;BME280;48830;53.426;10.300;2024-02-28T03:14:00;101880.06;;;22.39;67.57
62791;BME280;48830;53.426;10.300;2024-02-28T03:16:25;101881.78;;;22.40;67.58
62791;BME280;48830;53.426;10.300;2024-02-28T03:18:51;101879.16;;;22.38;67.77
62791;BME280;48830;53.426;10.300;2024-02-28T03:21:16;101878.31;;;22.38;67.77
62791;BME280;48830;53.426;10.300;2024-02-28T03:23:42;101875.69;;;22.38;67.34
62791;BME280;48830;53.426;10.300;2024-02-28T03:26:07;101875.69;;;22.38;67.73
62791;BME280;48830;53.426;10.300;2024-02-28T03:28:33;101875.72;;;22.36;67.88
62791;BME280;48830;53.426;10.300;2024-02-28T03:30:58;101885.34;;;22.36;68.02
62791;BME280;48830;53.426;10.300;2024-02-28T03:33:24;101882.72;;;22.36;67.55
62791;BME280;48830;53.426;10.300;2024-02-28T03:35:50;101884.47;;;22.35;67.94
62791;BME280;48830;53.426;10.300;2024-02-28T03:38:15;101886.25;;;22.35;67.76
62791;BME280;48830;53.426;10.300;2024-02-28T03:40:41;101880.13;;;22.34;67.34
62791;BME280;48830;53.426;10.300;2024-02-28T03:43:06;101881.91;;;22.34;67.69
62791;BME280;48830;53.426;10.300;2024-02-28T03:45:36;101875.75;;;22.33;67.61
62791;BME280;48830;53.426;10.300;2024-02-28T03:48:03;101882.75;;;22.33;67.94
62791;BME280;48830;53.426;10.300;2024-02-28T03:50:28;101886.28;;;22.32;67.56
62791;BME280;48830;53.426;10.300;2024-02-28T03:52:53;101885.44;;;22.30;67.84
62791;BME280;48830;53.426;10.300;2024-02-28T03:55:19;101883.72;;;22.29;67.65
62791;BME280;48830;53.426;10.300;2024-02-28T03:57:48;101871.50;;;22.27;67.81
62791;BME280;48830;53.426;10.300;2024-02-28T04:00:13;101880.25;;;22.26;67.52
62791;BME280;48830;53.426;10.300;2024-02-28T04:02:39;101877.63;;;22.26;67.14
62791;BME280;48830;53.426;10.300;2024-02-28T04:05:05;101883.75;;;22.25;67.44
62791;BME280;48830;53.426;10.300;2024-02-28T04:07:30;101877.66;;;22.25;67.71
62791;BME280;48830;53.426;10.300;2024-02-28T04:09:55;101880.31;;;22.23;67.40
62791;BME280;48830;53.426;10.300;2024-02-28T04:12:21;101876.78;;;22.24;67.32
62791;BME280;48830;53.426;10.300;2024-02-28T04:14:46;101881.16;;;22.24;67.35
62791;BME280;48830;53.426;10.300;2024-02-28T04:17:11;101882.03;;;22.24;67.60
62791;BME280;48830;53.426;10.300;2024-02-28T04:19:37;101880.31;;;22.23;67.21
62791;BME280;48830;53.426;10.300;2024-02-28T04:22:04;101885.53;;;22.23;67.23
62791;BME280;48830;53.426;10.300;2024-02-28T04:24:29;101877.69;;;22.22;67.52
62791;BME280;48830;53.426;10.300;2024-02-28T04:26:55;101873.38;;;22.19;67.70
62791;BME280;48830;53.426;10.300;2024-02-28T04:29:21;101876.81;;;22.21;67.33
62791;BME280;48830;53.426;10.300;2024-02-28T04:31:47;101877.72;;;22.20;67.47
62791;BME280;48830;53.426;10.300;2024-02-28T04:34:12;101879.44;;;22.21;67.35
62791;BME280;48830;53.426;10.300;2024-02-28T04:36:38;101885.59;;;22.20;67.33
62791;BME280;48830;53.426;10.300;2024-02-28T04:39:03;101882.97;;;22.20;67.36
62791;BME280;48830;53.426;10.300;2024-02-28T04:41:31;101877.78;;;22.17;67.28
62791;BME280;48830;53.426;10.300;2024-02-28T04:43:56;101883.84;;;22.19;67.32
62791;BME280;48830;53.426;10.300;2024-02-28T04:46:22;101877.78;;;22.17;67.63
62791;BME280;48830;53.426;10.300;2024-02-28T04:48:47;101877.75;;;22.19;67.73
62791;BME280;48830;53.426;10.300;2024-02-28T04:51:15;101878.63;;;22.19;67.64
62791;BME280;48830;53.426;10.300;2024-02-28T04:53:42;101875.16;;;22.17;67.82
62791;BME280;48830;53.426;10.300;2024-02-28T04:56:08;101876.91;;;22.17;67.83
62791;BME280;48830;53.426;10.300;2024-02-28T04:58:33;101874.28;;;22.17;67.54
62791;BME280;48830;53.426;10.300;2024-02-28T05:00:58;101879.50;;;22.18;67.94
62791;BME280;48830;53.426;10.300;2024-02-28T05:03:24;101883.03;;;22.17;67.61
62791;BME280;48830;53.426;10.300;2024-02-28T05:05:50;101882.16;;;22.15;67.80
62791;BME280;48830;53.426;10.300;2024-02-28T05:08:17;101882.16;;;22.15;67.99
62791;BME280;48830;53.426;10.300;2024-02-28T05:10:43;101884.78;;;22.15;67.87
62791;BME280;48830;53.426;10.300;2024-02-28T05:13:08;101876.06;;;22.15;67.90
62791;BME280;48830;53.426;10.300;2024-02-28T05:15:33;101895.28;;;22.14;67.96
62791;BME280;48830;53.426;10.300;2024-02-28T05:17:59;101894.41;;;22.15;67.51
62791;BME280;48830;53.426;10.300;2024-02-28T05:20:24;101894.44;;;22.13;67.74
62791;BME280;48830;53.426;10.300;2024-02-28T05:22:49;101896.16;;;22.14;67.85
62791;BME280;48830;53.426;10.300;2024-02-28T05:25:15;101892.63;;;22.15;67.99
62791;BME280;48830;53.426;10.300;2024-02-28T05:27:40;101885.69;;;22.14;67.72
62791;BME280;48830;53.426;10.300;2024-02-28T05:30:06;101884.78;;;22.15;68.07
62791;BME280;48830;53.426;10.300;2024-02-28T05:32:32;101896.16;;;22.14;67.91
62791;BME280;48830;53.426;10.300;2024-02-28T05:34:58;101897.03;;;22.13;67.75
62791;BME280;48830;53.426;10.300;2024-02-28T05:37:23;101895.31;;;22.12;67.84
62791;BME280;48830;53.426;10.300;2024-02-28T05:39:50;101893.56;;;22.13;67.81
62791;BME280;48830;53.426;10.300;2024-02-28T05:42:15;101899.66;;;22.13;67.95
62791;BME280;48830;53.426;10.300;2024-02-28T05:44:47;101902.31;;;22.12;68.09
62791;BME280;48830;53.426;10.300;2024-02-28T05:47:13;101890.94;;;22.11;68.09
62791;BME280;48830;53.426;10.300;2024-02-28T05:49:38;101896.22;;;22.08;68.18
62791;BME280;48830;53.426;10.300;2024-02-28T05:52:04;101897.94;;;22.12;68.19
62791;BME280;48830;53.426;10.300;2024-02-28T05:54:30;101904.03;;;22.11;68.08
62791;BME280;48830;53.426;10.300;2024-02-28T05:56:56;101908.41;;;22.09;68.08
62791;BME280;48830;53.426;10.300;2024-02-28T05:59:21;101902.31;;;22.12;68.21
62791;BME280;48830;53.426;10.300;2024-02-28T06:01:47;101909.28;;;22.11;67.98
62791;BME280;48830;53.426;10.300;2024-02-28T06:04:12;101904.94;;;22.10;67.79
62791;BME280;48830;53.426;10.300;2024-02-28T06:06:38;101912.78;;;22.10;68.11
62791;BME280;48830;53.426;10.300;2024-02-28T06:09:03;101918.03;;;22.12;67.79
62791;BME280;48830;53.426;10.300;2024-02-28T06:11:29;101917.13;;;22.13;67.97
62791;BME280;48830;53.426;10.300;2024-02-28T06:13:54;101922.38;;;22.13;67.94
62791;BME280;48830;53.426;10.300;2024-02-28T06:16:20;101923.25;;;22.09;67.90
62791;BME280;48830;53.426;10.300;2024-02-28T06:18:45;101919.75;;;22.10;68.14
62791;BME280;48830;53.426;10.300;2024-02-28T06:21:12;101921.50;;;22.09;68.38
62791;BME280;48830;53.426;10.300;2024-02-28T06:23:37;101920.66;;;22.10;67.95
62791;BME280;48830;53.426;10.300;2024-02-28T06:26:03;101925.88;;;22.10;68.22
62791;BME280;48830;53.426;10.300;2024-02-28T06:28:28;101928.50;;;22.12;69.09
62791;BME280;48830;53.426;10.300;2024-02-28T06:30:53;101922.38;;;22.11;68.27
62791;BME280;48830;53.426;10.300;2024-02-28T06:33:19;101933.72;;;22.13;68.54
62791;BME280;48830;53.426;10.300;2024-02-28T06:35:44;101938.09;;;22.13;68.77
62791;BME280;48830;53.426;10.300;2024-02-28T06:38:10;101931.13;;;22.09;68.67
62791;BME280;48830;53.426;10.300;2024-02-28T06:40:35;101950.25;;;22.15;69.46
62791;BME280;48830;53.426;10.300;2024-02-28T06:43:01;101946.75;;;22.16;69.20
62791;BME280;48830;53.426;10.300;2024-02-28T06:45:27;101955.47;;;22.17;69.23
62791;BME280;48830;53.426;10.300;2024-02-28T06:47:52;101958.16;;;22.14;69.00
62791;BME280;48830;53.426;10.300;2024-02-28T06:50:18;101952.03;;;22.13;69.38
62791;BME280;48830;53.426;10.300;2024-02-28T06:52:43;101956.34;;;22.16;69.17
62791;BME280;48830;53.426;10.300;2024-02-28T06:55:09;101960.72;;;22.15;69.20
62791;BME280;48830;53.426;10.300;2024-02-28T06:57:41;101958.97;;;22.17;69.31
62791;BME280;48830;53.426;10.300;2024-02-28T07:00:08;101963.31;;;22.18;69.11
62791;BME280;48830;53.426;10.300;2024-02-28T07:02:37;101965.03;;;22.21;69.31
62791;BME280;48830;53.426;10.300;2024-02-28T07:05:03;101960.63;;;22.21;69.14
62791;BME280;48830;53.426;10.300;2024-02-28T07:07:33;101958.88;;;22.23;69.28
62791;BME280;48830;53.426;10.300;2024-02-28T07:09:58;101964.97;;;22.25;69.04
62791;BME280;48830;53.426;10.300;2024-02-28T07:12:24;101969.28;;;22.30;68.99
62791;BME280;48830;53.426;10.300;2024-02-28T07:14:52;101965.72;;;22.32;68.91
62791;BME280;48830;53.426;10.300;2024-02-28T07:17:17;101968.41;;;22.27;68.85
62791;BME280;48830;53.426;10.300;2024-02-28T07:19:43;101970.09;;;22.32;68.48
62791;BME280;48830;53.426;10.300;2024-02-28T07:22:08;101977.94;;;22.35;68.35
62791;BME280;48830;53.426;10.300;2024-02-28T07:24:34;101975.25;;;22.38;68.25
62791;BME280;48830;53.426;10.300;2024-02-28T07:26:59;101980.38;;;22.44;68.26
62791;BME280;48830;53.426;10.300;2024-02-28T07:29:25;101990.91;;;22.42;68.76
62791;BME280;48830;53.426;10.300;2024-02-28T07:31:50;101989.16;;;22.44;69.01
62791;BME280;48830;53.426;10.300;2024-02-28T07:34:16;101991.66;;;22.50;68.27
62791;BME280;48830;53.426;10.300;2024-02-28T07:36:41;101992.47;;;22.54;68.35
62791;BME280;48830;53.426;10.300;2024-02-28T07:39:06;101990.72;;;22.56;68.35
62791;BME280;48830;53.426;10.300;2024-02-28T07:41:32;101984.59;;;22.56;68.62
62791;BME280;48830;53.426;10.300;2024-02-28T07:43:57;101988.94;;;22.57;68.16
62791;BME280;48830;53.426;10.300;2024-02-28T07:46:23;101988.00;;;22.62;68.67
62791;BME280;48830;53.426;10.300;2024-02-28T07:48:48;101987.13;;;22.62;68.45
62791;BME280;48830;53.426;10.300;2024-02-28T07:51:14;101984.50;;;22.62;68.06
62791;BME280;48830;53.426;10.300;2024-02-28T07:53:40;101978.28;;;22.69;68.10
62791;BME280;48830;53.426;10.300;2024-02-28T07:56:05;101979.13;;;22.69;68.16
62791;BME280;48830;53.426;10.300;2024-02-28T07:58:31;101979.94;;;22.74;67.75
62791;BME280;48830;53.426;10.300;2024-02-28T08:00:56;101968.63;;;22.72;68.20
62791;BME280;48830;53.426;10.300;2024-02-28T08:03:22;101982.53;;;22.74;68.18
62791;BME280;48830;53.426;10.300;2024-02-28T08:05:47;101978.19;;;22.73;68.12
62791;BME280;48830;53.426;10.300;2024-02-28T08:08:14;101984.28;;;22.75;67.66
62791;BME280;48830;53.426;10.300;2024-02-28T08:10:39;101982.47;;;22.79;67.94
62791;BME280;48830;53.426;10.300;2024-02-28T08:13:05;101984.22;;;22.78;67.88
62791;BME280;48830;53.426;10.300;2024-02-28T08:15:31;101991.97;;;22.86;67.63
62791;BME280;48830;53.426;10.300;2024-02-28T08:17:57;101987.56;;;22.87;67.55
62791;BME280;48830;53.426;10.300;2024-02-28T08:20:23;101989.28;;;22.35;52.24
62791;BME280;48830;53.426;10.300;2024-02-28T08:22:49;101987.94;;;21.23;48.34
62791;BME280;48830;53.426;10.300;2024-02-28T08:25:14;101995.25;;;20.88;49.07
62791;BME280;48830;53.426;10.300;2024-02-28T08:27:41;101993.50;;;20.85;53.11
62791;BME280;48830;53.426;10.300;2024-02-28T08:30:07;101992.38;;;21.15;55.23
62791;BME280;48830;53.426;10.300;2024-02-28T08:32:33;101998.22;;;21.45;56.67
62791;BME280;48830;53.426;10.300;2024-02-28T08:34:58;102009.28;;;21.68;57.32
62791;BME280;48830;53.426;10.300;2024-02-28T08:37:26;102004.75;;;21.86;58.16
62791;BME280;48830;53.426;10.300;2024-02-28T08:39:54;102000.22;;;21.95;59.50
62791;BME280;48830;53.426;10.300;2024-02-28T08:42:25;102007.94;;;22.06;59.65
62791;BME280;48830;53.426;10.300;2024-02-28T08:44:54;102000.88;;;22.16;59.98
62791;BME280;48830;53.426;10.300;2024-02-28T08:47:24;101993.84;;;22.19;61.42
62791;BME280;48830;53.426;10.300;2024-02-28T08:49:50;102004.28;;;22.24;62.52
62791;BME280;48830;53.426;10.300;2024-02-28T08:52:15;102004.22;;;22.29;62.94
62791;BME280;48830;53.426;10.300;2024-02-28T08:54:41;101992.78;;;22.33;63.38
62791;BME280;48830;53.426;10.300;2024-02-28T08:57:06;101998.88;;;22.35;63.82
62791;BME280;48830;53.426;10.300;2024-02-28T08:59:32;102005.81;;;22.39;63.71
62791;BME280;48830;53.426;10.300;2024-02-28T09:01:58;102003.03;;;22.49;63.09
62791;BME280;48830;53.426;10.300;2024-02-28T09:04:23;101996.06;;;22.50;63.81
62791;BME280;48830;53.426;10.300;2024-02-28T09:06:48;102006.47;;;22.53;63.78
62791;BME280;48830;53.426;10.300;2024-02-28T09:09:14;102010.78;;;22.57;63.86
62791;BME280;48830;53.426;10.300;2024-02-28T09:11:39;102008.09;;;22.62;64.16
62791;BME280;48830;53.426;10.300;2024-02-28T09:14:05;102002.78;;;22.66;63.84
62791;BME280;48830;53.426;10.300;2024-02-28T09:16:30;102007.97;;;22.71;63.95
62791;BME280;48830;53.426;10.300;2024-02-28T09:18:56;102010.41;;;22.80;63.69
62791;BME280;48830;53.426;10.300;2024-02-28T09:21:21;102017.31;;;22.86;63.69
62791;BME280;48830;53.426;10.300;2024-02-28T09:23:46;102013.78;;;22.90;63.27
62791;BME280;48830;53.426;10.300;2024-02-28T09:26:12;102011.13;;;22.93;63.68
62791;BME280;48830;53.426;10.300;2024-02-28T09:28:38;102008.44;;;22.96;63.94
62791;BME280;48830;53.426;10.300;2024-02-28T09:31:03;102014.50;;;22.99;64.09
62791;BME280;48830;53.426;10.300;2024-02-28T09:33:29;102011.84;;;23.01;64.07
62791;BME280;48830;53.426;10.300;2024-02-28T09:35:54;102008.34;;;23.02;63.62
62791;BME280;48830;53.426;10.300;2024-02-28T09:38:20;102013.59;;;23.02;63.83
62791;BME280;48830;53.426;10.300;2024-02-28T09:40:46;102014.41;;;23.05;63.95
62791;BME280;48830;53.426;10.300;2024-02-28T09:43:31;102024.88;;;23.09;64.28
62791;BME280;48830;53.426;10.300;2024-02-28T09:46:04;102023.09;;;23.08;63.85
62791;BME280;48830;53.426;10.300;2024-02-28T09:48:29;102021.28;;;23.13;64.14
62791;BME280;48830;53.426;10.300;2024-02-28T09:50:59;102028.25;;;23.14;64.62
62791;BME280;48830;53.426;10.300;2024-02-28T09:53:28;102019.50;;;23.15;64.80
62791;BME280;48830;53.426;10.300;2024-02-28T09:55:54;102024.72;;;23.16;64.78
62791;BME280;48830;53.426;10.300;2024-02-28T09:58:19;102017.66;;;23.20;64.19
62791;BME280;48830;53.426;10.300;2024-02-28T10:00:46;102020.19;;;23.24;64.72
62791;BME280;48830;53.426;10.300;2024-02-28T10:03:17;102014.94;;;23.26;65.57
62791;BME280;48830;53.426;10.300;2024-02-28T10:05:46;102019.19;;;23.31;65.87
62791;BME280;48830;53.426;10.300;2024-02-28T10:08:12;101985.00;;;23.35;66.42
62791;BME280;48830;53.426;10.300;2024-02-28T10:10:45;101979.78;;;23.35;66.59
62791;BME280;48830;53.426;10.300;2024-02-28T10:13:11;101988.41;;;23.40;66.79
62791;BME280;48830;53.426;10.300;2024-02-28T10:15:36;101995.41;;;23.41;65.95
62791;BME280;48830;53.426;10.300;2024-02-28T10:18:02;101991.91;;;23.42;65.44
62791;BME280;48830;53.426;10.300;2024-02-28T10:20:30;101997.22;;;23.37;64.51
62791;BME280;48830;53.426;10.300;2024-02-28T10:22:56;102004.13;;;23.43;64.40
62791;BME280;48830;53.426;10.300;2024-02-28T10:25:21;101999.00;;;23.37;64.17
62791;BME280;48830;53.426;10.300;2024-02-28T10:27:46;102005.06;;;23.39;63.23
62791;BME280;48830;53.426;10.300;2024-02-28T10:30:12;102000.72;;;23.38;63.56
62791;BME280;48830;53.426;10.300;2024-02-28T10:32:48;102036.56;;;23.39;63.16
62791;BME280;48830;53.426;10.300;2024-02-28T10:35:17;102032.25;;;23.35;62.09
62791;BME280;48830;53.426;10.300;2024-02-28T10:37:42;102033.16;;;23.34;61.87
62791;BME280;48830;53.426;10.300;2024-02-28T10:40:09;102033.22;;;23.29;61.36
62791;BME280;48830;53.426;10.300;2024-02-28T10:42:36;102032.31;;;23.31;60.89
62791;BME280;48830;53.426;10.300;2024-02-28T10:45:02;102030.59;;;23.29;60.78
62791;BME280;48830;53.426;10.300;2024-02-28T10:47:28;102034.94;;;23.30;60.80
62791;BME280;48830;53.426;10.300;2024-02-28T10:49:54;102034.97;;;23.28;60.33
62791;BME280;48830;53.426;10.300;2024-02-28T10:52:21;102043.72;;;23.29;60.31
62791;BME280;48830;53.426;10.300;2024-02-28T10:54:54;102042.81;;;23.31;59.69
62791;BME280;48830;53.426;10.300;2024-02-28T10:57:21;102034.16;;;23.26;59.73
62791;BME280;48830;53.426;10.300;2024-02-28T10:59:50;102036.75;;;23.28;59.31
62791;BME280;48830;53.426;10.300;2024-02-28T11:02:16;102028.00;;;23.27;59.04
62791;BME280;48830;53.426;10.300;2024-02-28T11:04:41;102023.56;;;23.33;58.71
62791;BME280;48830;53.426;10.300;2024-02-28T11:07:07;102025.38;;;23.27;59.00
62791;BME280;48830;53.426;10.300;2024-02-28T11:09:34;102030.53;;;23.34;59.23
62791;BME280;48830;53.426;10.300;2024-02-28T11:11:59;102034.94;;;23.30;59.37
62791;BME280;48830;53.426;10.300;2024-02-28T11:14:25;102030.59;;;23.29;59.84
62791;BME280;48830;53.426;10.300;2024-02-28T11:17:02;102028.94;;;23.25;60.55
62791;BME280;48830;53.426;10.300;2024-02-28T11:19:32;102035.94;;;23.24;60.29
62791;BME280;48830;53.426;10.300;2024-02-28T11:21:59;102025.38;;;23.27;60.70
62791;BME280;48830;53.426;10.300;2024-02-28T11:24:29;102034.03;;;23.33;60.71
62791;BME280;48830;53.426;10.300;2024-02-28T11:26:56;102029.69;;;23.30;61.01
62791;BME280;48830;53.426;10.300;2024-02-28T11:29:24;102026.97;;;23.38;61.20
62791;BME280;48830;53.426;10.300;2024-02-28T11:31:50;102026.97;;;23.38;61.19
62791;BME280;48830;53.426;10.300;2024-02-28T11:34:16;102033.03;;;23.41;61.41
62791;BME280;48830;53.426;10.300;2024-02-28T11:36:41;102036.66;;;23.33;61.42
62791;BME280;48830;53.426;10.300;2024-02-28T11:39:07;102035.84;;;23.30;61.73
62791;BME280;48830;53.426;10.300;2024-02-28T11:41:32;102027.94;;;23.32;61.76
62791;BME280;48830;53.426;10.300;2024-02-28T11:43:58;102031.41;;;23.33;61.32
62791;BME280;48830;53.426;10.300;2024-02-28T11:46:23;102028.78;;;23.33;61.61
62791;BME280;48830;53.426;10.300;2024-02-28T11:48:49;102033.22;;;23.30;61.53
62791;BME280;48830;53.426;10.300;2024-02-28T11:51:14;102033.13;;;23.35;61.64
62791;BME280;48830;53.426;10.300;2024-02-28T11:53:40;102028.75;;;23.36;61.22
62791;BME280;48830;53.426;10.300;2024-02-28T11:56:07;102029.66;;;23.33;61.63
62791;BME280;48830;53.426;10.300;2024-02-28T11:58:33;102026.19;;;23.33;61.35
62791;BME280;48830;53.426;10.300;2024-02-28T12:00:59;102030.53;;;23.34;61.37
62791;BME280;48830;53.426;10.300;2024-02-28T12:03:25;102019.16;;;23.33;61.21
62791;BME280;48830;53.426;10.300;2024-02-28T12:05:55;102020.88;;;23.34;61.52
62791;BME280;48830;53.426;10.300;2024-02-28T12:08:20;102026.19;;;23.33;61.33
62791;BME280;48830;53.426;10.300;2024-02-28T12:10:46;102022.72;;;23.30;61.76
62791;BME280;48830;53.426;10.300;2024-02-28T12:13:16;102024.41;;;23.33;61.83
62791;BME280;48830;53.426;10.300;2024-02-28T12:15:42;102023.50;;;23.34;61.71
62791;BME280;48830;53.426;10.300;2024-02-28T12:18:08;102019.13;;;23.36;61.44
62791;BME280;48830;53.426;10.300;2024-02-28T12:20:35;102016.31;;;23.45;61.81
62791;BME280;48830;53.426;10.300;2024-02-28T12:23:03;102014.47;;;23.52;61.74
62791;BME280;48830;53.426;10.300;2024-02-28T12:25:28;102015.16;;;23.60;61.57
62791;BME280;48830;53.426;10.300;2024-02-28T12:27:54;102020.44;;;23.58;61.36
62791;BME280;48830;53.426;10.300;2024-02-28T12:30:19;102015.19;;;23.58;62.10
62791;BME280;48830;53.426;10.300;2024-02-28T12:32:46;102012.66;;;23.54;61.88
62791;BME280;48830;53.426;10.300;2024-02-28T12:35:11;102016.19;;;23.53;62.14